Time;durP1;ratioP1;P1;durP2;ratioP2;P2;SDS_P1;SDS_P2;PMS_P1;PMS_P2;Temp;Humidity;BMP_temperature;BMP_pressure;BME280_temperature;BME280_humidity;BME280_pressure;Samples;Min_cycle;Max_cycle;Signal;HPM_P1;HPM_P2
2021/07/28 00:00:59;;;;;;;;;;;;;;;21.84;69.44;97912.88;1643534;85;22052;-86
2021/07/28 00:03:30;;;;;;;;;;;;;;;21.77;69.48;97913.32;1653193;84;25985;-85
2021/07/28 00:05:59;;;;;;;;;;;;;;;21.78;69.53;97914.14;1612323;86;25185;-85
2021/07/28 00:08:25;;;;;;;;;;;;;;;21.72;69.57;97911.73;1643754;85;20228;-86
2021/07/28 00:10:51;;;;;;;;;;;;;;;21.70;69.63;97917.78;1664944;85;24787;-85
2021/07/28 00:13:17;;;;;;;;;;;;;;;21.71;69.67;97916.77;1665520;85;21967;-85
2021/07/28 00:15:43;;;;;;;;;;;;;;;21.73;69.72;97908.06;1664330;85;20989;-85
2021/07/28 00:18:16;;;;;;;;;;;;;;;21.69;69.74;97920.95;1663954;85;24508;-85
2021/07/28 00:23:14;;;;;;;;;;;;;;;21.61;69.74;97920.23;1634844;86;25469;-85
2021/07/28 00:25:41;;;;;;;;;;;;;;;21.61;69.71;97918.89;1645761;85;22164;-86
2021/07/28 00:28:07;;;;;;;;;;;;;;;21.62;69.67;97914.72;1639866;85;26082;-85
2021/07/28 00:30:33;;;;;;;;;;;;;;;21.64;69.65;97909.21;1652612;84;24398;-86
2021/07/28 00:32:59;;;;;;;;;;;;;;;21.66;69.62;97903.17;1603811;86;21167;-85
2021/07/28 00:35:25;;;;;;;;;;;;;;;21.66;69.58;97897.84;1663392;85;24782;-85
2021/07/28 00:37:51;;;;;;;;;;;;;;;21.67;69.53;97903.49;1665239;85;22012;-85
2021/07/28 00:40:18;;;;;;;;;;;;;;;21.69;69.47;97898.81;1661865;85;26188;-85
2021/07/28 00:42:44;;;;;;;;;;;;;;;21.70;69.44;97898.63;1667798;85;24471;-85
2021/07/28 00:45:10;;;;;;;;;;;;;;;21.72;69.38;97891.76;1661384;85;20263;-85
2021/07/28 00:47:37;;;;;;;;;;;;;;;21.74;69.34;97883.08;1667267;84;24751;-85
2021/07/28 00:50:04;;;;;;;;;;;;;;;21.76;69.31;97879.73;1625026;88;22909;-85
2021/07/28 00:52:32;;;;;;;;;;;;;;;21.76;69.29;97874.41;1625297;88;25737;-85
2021/07/28 00:54:58;;;;;;;;;;;;;;;21.77;69.23;97874.69;1625937;87;24620;-85
2021/07/28 00:57:24;;;;;;;;;;;;;;;21.79;69.13;97869.19;1625020;88;20253;-85
2021/07/28 00:59:55;;;;;;;;;;;;;;;21.80;69.06;97869.00;1634467;86;24683;-85
2021/07/28 01:02:18;;;;;;;;;;;;;;;21.82;68.98;97878.14;1638099;86;22008;-85
2021/07/28 01:04:44;;;;;;;;;;;;;;;21.83;68.93;97869.11;1634866;87;26030;-85
2021/07/28 01:07:10;;;;;;;;;;;;;;;21.83;68.86;97873.93;1599235;88;20352;-85
2021/07/28 01:09:36;;;;;;;;;;;;;;;21.85;68.76;97871.91;1634835;86;20293;-85
2021/07/28 01:12:04;;;;;;;;;;;;;;;21.88;68.72;97878.68;1643169;86;20557;-85
2021/07/28 01:14:33;;;;;;;;;;;;;;;21.90;68.67;97876.66;1624409;86;22799;-85
2021/07/28 01:16:59;;;;;;;;;;;;;;;21.90;68.62;97879.33;1635860;87;25985;-85
2021/07/28 01:19:26;;;;;;;;;;;;;;;21.91;68.58;97883.64;1629785;87;20874;-85
2021/07/28 01:21:54;;;;;;;;;;;;;;;21.91;68.54;97878.31;1667719;85;20193;-84
2021/07/28 01:24:22;;;;;;;;;;;;;;;21.91;68.46;97876.98;1639573;87;24736;-85
2021/07/28 01:26:51;;;;;;;;;;;;;;;21.90;68.37;97882.81;1598786;88;21953;-85
2021/07/28 01:29:18;;;;;;;;;;;;;;;21.90;68.31;97879.33;1637066;85;26055;-85
2021/07/28 01:31:44;;;;;;;;;;;;;;;21.90;68.26;97886.81;1606093;88;24446;-85
2021/07/28 01:34:10;;;;;;;;;;;;;;;21.89;68.21;97884.33;1639276;87;20702;-85
2021/07/28 01:36:38;;;;;;;;;;;;;;;21.90;68.16;97884.65;1630273;87;25241;-85
2021/07/28 01:39:04;;;;;;;;;;;;;;;21.89;68.13;97889.16;1639752;86;21973;-85
2021/07/28 01:41:33;;;;;;;;;;;;;;;21.88;68.09;97880.01;1639172;87;25991;-85
2021/07/28 01:43:59;;;;;;;;;;;;;;;21.88;68.04;97876.84;1617526;86;24435;-85
2021/07/28 01:46:25;;;;;;;;;;;;;;;21.85;67.98;97871.91;1638295;87;20223;-84
2021/07/28 01:48:51;;;;;;;;;;;;;;;21.90;67.92;97875.33;1657182;83;24617;-85
2021/07/28 01:51:17;;;;;;;;;;;;;;;21.91;67.88;97879.64;1631570;85;22684;-85
2021/07/28 01:53:43;;;;;;;;;;;;;;;21.93;67.86;97875.76;1679131;84;21050;-84
2021/07/28 01:56:14;;;;;;;;;;;;;;;21.91;67.84;97880.47;1643525;85;24477;-85
2021/07/28 01:58:42;;;;;;;;;;;;;;;21.88;67.82;97880.84;1663925;85;20255;-85
2021/07/28 02:01:08;;;;;;;;;;;;;;;21.84;67.79;97882.75;1660033;84;25006;-85
2021/07/28 02:03:34;;;;;;;;;;;;;;;21.81;67.80;97883.14;1662828;85;21970;-85
2021/07/28 02:06:00;;;;;;;;;;;;;;;21.76;67.79;97878.40;1664826;85;20975;-84
2021/07/28 02:08:26;;;;;;;;;;;;;;;21.75;67.79;97881.24;1662598;85;24459;-84
2021/07/28 02:10:52;;;;;;;;;;;;;;;21.70;67.78;97866.67;1664925;85;20463;-85
2021/07/28 02:13:19;;;;;;;;;;;;;;;21.68;67.80;97863.36;1662049;84;24804;-85
2021/07/28 02:15:45;;;;;;;;;;;;;;;21.67;67.79;97861.70;1661988;85;21986;-85
2021/07/28 02:18:12;;;;;;;;;;;;;;;21.66;67.77;97861.89;1667941;85;25983;-85
2021/07/28 02:20:38;;;;;;;;;;;;;;;21.63;67.75;97848.46;1664101;85;24492;-85
2021/07/28 02:23:04;;;;;;;;;;;;;;;21.63;67.75;97853.79;1680687;85;20253;-85
2021/07/28 02:25:30;;;;;;;;;;;;;;;21.60;67.75;97849.36;1630219;85;24815;-85
2021/07/28 02:27:56;;;;;;;;;;;;;;;21.52;67.72;97839.66;1681152;84;22013;-85
2021/07/28 02:30:22;;;;;;;;;;;;;;;21.49;67.71;97833.89;1643582;85;25829;-85
2021/07/28 02:32:49;;;;;;;;;;;;;;;21.49;67.71;97839.22;1662440;85;24011;-85
2021/07/28 02:35:15;;;;;;;;;;;;;;;21.49;67.73;97831.23;1667757;85;20252;-85
2021/07/28 02:37:42;;;;;;;;;;;;;;;21.46;67.74;97831.59;1664981;85;25956;-85
2021/07/28 02:40:12;;;;;;;;;;;;;;;21.46;67.76;97842.25;1665482;85;21195;-86
2021/07/28 02:42:38;;;;;;;;;;;;;;;21.50;67.81;97846.17;1666176;85;25948;-86
2021/07/28 02:45:05;;;;;;;;;;;;;;;21.48;67.84;97853.03;1667318;85;24404;-85
2021/07/28 02:47:40;;;;;;;;;;;;;;;21.45;67.88;97845.91;1665572;85;20159;-86
2021/07/28 02:50:07;;;;;;;;;;;;;;;21.42;67.89;97859.62;1664157;85;24764;-86
2021/07/28 02:52:33;;;;;;;;;;;;;;;21.35;67.93;97870.19;1664668;85;22134;-85
2021/07/28 02:55:05;;;;;;;;;;;;;;;21.36;67.99;97865.70;1664202;85;25964;-85
2021/07/28 02:57:29;;;;;;;;;;;;;;;21.35;68.03;97860.05;1664822;85;25234;-85
2021/07/28 02:59:55;;;;;;;;;;;;;;;21.30;68.03;97860.63;1680822;85;20470;-85
2021/07/28 03:02:21;;;;;;;;;;;;;;;21.26;68.09;97854.03;1672299;84;25184;-85
2021/07/28 03:04:48;;;;;;;;;;;;;;;21.23;68.15;97853.06;1631512;85;21923;-85
2021/07/28 03:07:14;;;;;;;;;;;;;;;21.24;68.20;97856.05;1680480;85;26022;-85
2021/07/28 03:09:40;;;;;;;;;;;;;;;21.26;68.25;97856.19;1659566;85;24414;-85
2021/07/28 03:12:06;;;;;;;;;;;;;;;21.23;68.24;97853.89;1628639;88;20324;-85
2021/07/28 03:14:32;;;;;;;;;;;;;;;21.21;68.26;97853.27;1681423;83;24803;-85
2021/07/28 03:16:58;;;;;;;;;;;;;;;21.21;68.28;97851.11;1639714;85;22010;-85
2021/07/28 03:19:24;;;;;;;;;;;;;;;21.21;68.32;97851.94;1662962;85;26046;-86
2021/07/28 03:21:50;;;;;;;;;;;;;;;21.15;68.37;97846.54;1668514;85;24388;-85
2021/07/28 03:24:18;;;;;;;;;;;;;;;21.13;68.43;97843.20;1668830;85;20249;-85
2021/07/28 03:26:51;;;;;;;;;;;;;;;21.05;68.49;97852.14;1656147;85;25461;-85
2021/07/28 03:29:22;;;;;;;;;;;;;;;20.97;68.56;97852.23;1680209;84;21928;-84
2021/07/28 03:31:54;;;;;;;;;;;;;;;20.93;68.65;97853.63;1635307;85;26800;-85
2021/07/28 03:34:19;;;;;;;;;;;;;;;20.84;68.75;97850.73;1663950;85;25104;-85
2021/07/28 03:36:45;;;;;;;;;;;;;;;20.83;68.82;97850.44;1653363;85;20247;-85
2021/07/28 03:39:11;;;;;;;;;;;;;;;20.72;68.96;97850.41;1679551;84;24720;-85
2021/07/28 03:41:37;;;;;;;;;;;;;;;20.62;69.04;97846.39;1629177;87;22050;-85
2021/07/28 03:44:04;;;;;;;;;;;;;;;20.54;69.16;97844.64;1679270;83;26265;-85
2021/07/28 03:46:30;;;;;;;;;;;;;;;20.60;69.29;97844.41;1627942;85;24496;-85
2021/07/28 03:48:56;;;;;;;;;;;;;;;20.73;69.43;97844.05;1677317;83;20358;-86
2021/07/28 03:51:28;;;;;;;;;;;;;;;20.82;69.56;97850.11;1682558;84;20245;-86
2021/07/28 03:53:57;;;;;;;;;;;;;;;20.85;69.63;97848.40;1680819;84;22060;-86
2021/07/28 03:56:23;;;;;;;;;;;;;;;20.87;69.68;97845.05;1681300;84;25996;-86
2021/07/28 03:58:52;;;;;;;;;;;;;;;20.92;69.74;97842.66;1679992;84;24459;-86
2021/07/28 04:01:19;;;;;;;;;;;;;;;20.90;69.80;97838.02;1680731;84;20315;-86
2021/07/28 04:03:46;;;;;;;;;;;;;;;20.89;69.90;97838.52;1655643;85;40680;-85
2021/07/28 04:06:14;;;;;;;;;;;;;;;20.97;69.96;97840.77;1631397;85;22040;-85
2021/07/28 04:08:40;;;;;;;;;;;;;;;21.08;70.05;97837.12;1688976;84;26216;-85
2021/07/28 04:11:09;;;;;;;;;;;;;;;21.05;70.06;97840.16;1690190;83;20322;-85
2021/07/28 04:13:35;;;;;;;;;;;;;;;21.00;70.10;97835.88;1687955;83;20454;-85
2021/07/28 04:16:01;;;;;;;;;;;;;;;21.01;70.17;97836.20;1687862;84;24726;-85
2021/07/28 04:18:27;;;;;;;;;;;;;;;21.09;70.31;97837.95;1687730;84;21832;-85
2021/07/28 04:20:53;;;;;;;;;;;;;;;21.21;70.44;97839.14;1688815;84;21031;-85
2021/07/28 04:23:19;;;;;;;;;;;;;;;21.24;70.53;97830.26;1656483;84;24509;-85
2021/07/28 04:25:45;;;;;;;;;;;;;;;21.29;70.56;97826.52;1689170;84;20878;-85
2021/07/28 04:28:11;;;;;;;;;;;;;;;21.36;70.57;97821.77;1688577;84;24935;-85
2021/07/28 04:30:37;;;;;;;;;;;;;;;21.37;70.55;97820.27;1687696;84;20314;-85
2021/07/28 04:33:03;;;;;;;;;;;;;;;21.41;70.52;97815.38;1688787;84;21037;-85
2021/07/28 04:35:29;;;;;;;;;;;;;;;21.44;70.46;97827.78;1688780;84;24480;-85
2021/07/28 04:37:55;;;;;;;;;;;;;;;21.52;70.43;97825.01;1687820;83;20244;-85
2021/07/28 04:40:22;;;;;;;;;;;;;;;21.59;70.38;97819.75;1687800;84;24754;-84
2021/07/28 04:42:48;;;;;;;;;;;;;;;21.66;70.36;97819.27;1689266;84;21962;-85
2021/07/28 04:45:15;;;;;;;;;;;;;;;21.76;70.35;97818.97;1689879;84;20909;-84
2021/07/28 04:47:41;;;;;;;;;;;;;;;21.81;70.29;97818.70;1688395;84;24472;-84
2021/07/28 04:50:07;;;;;;;;;;;;;;;21.88;70.22;97812.90;1686200;82;20283;-84
2021/07/28 04:52:35;;;;;;;;;;;;;;;21.93;70.11;97813.67;1649706;85;24765;-85
2021/07/28 04:55:01;;;;;;;;;;;;;;;21.97;70.06;97807.80;1677207;85;22956;-85
2021/07/28 04:57:32;;;;;;;;;;;;;;;22.00;69.96;97806.56;1679697;83;26157;-85
2021/07/28 04:59:58;;;;;;;;;;;;;;;22.03;69.92;97800.36;1675977;84;24378;-85
2021/07/28 05:02:25;;;;;;;;;;;;;;;22.09;69.81;97800.09;1679928;84;20355;-85
2021/07/28 05:04:54;;;;;;;;;;;;;;;22.17;69.78;97795.09;1674899;85;24832;-86
2021/07/28 05:07:20;;;;;;;;;;;;;;;22.22;69.72;97795.33;1679173;83;22082;-85
2021/07/28 05:09:47;;;;;;;;;;;;;;;22.30;69.64;97791.19;1655700;85;21151;-85
2021/07/28 05:12:13;;;;;;;;;;;;;;;22.37;69.63;97790.69;1675069;85;24503;-86
2021/07/28 05:14:39;;;;;;;;;;;;;;;22.45;69.53;97789.20;1671459;85;20223;-84
2021/07/28 05:17:05;;;;;;;;;;;;;;;22.56;69.46;97793.98;1681832;84;20814;-86
2021/07/28 05:19:31;;;;;;;;;;;;;;;22.64;69.42;97797.80;1675106;85;21948;-85
2021/07/28 05:21:57;;;;;;;;;;;;;;;22.72;69.36;97796.84;1677621;85;26058;-86
2021/07/28 05:24:23;;;;;;;;;;;;;;;22.82;69.28;97798.63;1676720;85;24672;-86
2021/07/28 05:26:49;;;;;;;;;;;;;;;22.89;69.21;97795.47;1677480;84;20467;-85
2021/07/28 05:29:15;;;;;;;;;;;;;;;22.99;69.20;97795.08;1680294;84;24754;-85
2021/07/28 05:31:41;;;;;;;;;;;;;;;23.06;69.14;97787.92;1678753;85;22028;-85
2021/07/28 05:34:07;;;;;;;;;;;;;;;23.09;69.05;97792.34;1679874;85;26032;-85
2021/07/28 05:36:36;;;;;;;;;;;;;;;23.14;68.96;97791.22;1677255;85;25221;-85
2021/07/28 05:39:02;;;;;;;;;;;;;;;23.19;68.85;97795.44;1678611;84;20454;-85
2021/07/28 05:41:28;;;;;;;;;;;;;;;23.25;68.82;97801.30;1678513;84;24809;-86
2021/07/28 05:43:54;;;;;;;;;;;;;;;23.31;68.71;97801.01;1678018;85;22065;-86
2021/07/28 05:46:21;;;;;;;;;;;;;;;23.37;68.62;97797.53;1679993;85;25981;-85
2021/07/28 05:48:47;;;;;;;;;;;;;;;23.45;68.53;97801.86;1674990;85;24460;-86
2021/07/28 05:51:13;;;;;;;;;;;;;;;23.52;68.45;97797.36;1678607;83;20220;-85
2021/07/28 05:53:39;;;;;;;;;;;;;;;23.59;68.39;97800.87;1678125;85;20240;-85
2021/07/28 05:56:05;;;;;;;;;;;;;;;23.65;68.29;97802.72;1678899;85;20869;-85
2021/07/28 05:58:36;;;;;;;;;;;;;;;23.68;68.19;97803.12;1679702;85;26031;-85
2021/07/28 06:01:02;;;;;;;;;;;;;;;23.73;68.08;97806.00;1679997;84;24490;-85
2021/07/28 06:03:30;;;;;;;;;;;;;;;23.82;68.01;97807.97;1679735;85;20569;-85
2021/07/28 06:06:01;;;;;;;;;;;;;;;23.87;67.93;97805.50;1678600;85;25445;-85
2021/07/28 06:08:28;;;;;;;;;;;;;;;23.94;67.86;97814.86;1679718;84;22316;-85
2021/07/28 06:10:54;;;;;;;;;;;;;;;23.99;67.71;97810.53;1678803;85;26095;-85
2021/07/28 06:13:20;;;;;;;;;;;;;;;24.03;67.62;97818.44;1679926;85;20267;-86
2021/07/28 06:15:48;;;;;;;;;;;;;;;24.06;67.58;97816.67;1679268;84;20260;-85
2021/07/28 06:18:14;;;;;;;;;;;;;;;24.10;67.45;97816.59;1678413;84;24933;-85
2021/07/28 06:20:40;;;;;;;;;;;;;;;24.16;67.32;97820.28;1680161;85;21981;-84
2021/07/28 06:23:12;;;;;;;;;;;;;;;24.22;67.31;97820.80;1678923;84;26003;-85
2021/07/28 06:25:38;;;;;;;;;;;;;;;24.29;67.26;97816.78;1680547;85;24617;-85
2021/07/28 06:28:04;;;;;;;;;;;;;;;24.33;67.14;97814.80;1680141;84;20184;-85
2021/07/28 06:30:31;;;;;;;;;;;;;;;24.39;67.03;97814.48;1679201;85;24774;-85
2021/07/28 06:32:58;;;;;;;;;;;;;;;24.44;66.93;97819.52;1659549;85;22181;-85
2021/07/28 06:35:24;;;;;;;;;;;;;;;24.51;66.86;97821.66;1678749;85;21039;-85
2021/07/28 06:37:50;;;;;;;;;;;;;;;24.57;66.82;97820.83;1678769;85;24461;-85
2021/07/28 06:40:16;;;;;;;;;;;;;;;24.64;66.75;97818.14;1677983;85;20490;-85
2021/07/28 06:42:43;;;;;;;;;;;;;;;24.68;66.68;97815.34;1679933;84;24864;-85
2021/07/28 06:45:09;;;;;;;;;;;;;;;24.77;66.63;97818.58;1678010;84;22090;-85
2021/07/28 06:47:36;;;;;;;;;;;;;;;24.83;66.58;97818.56;1680578;85;26039;-85
2021/07/28 06:50:03;;;;;;;;;;;;;;;24.89;66.47;97815.59;1680921;83;25332;-86
2021/07/28 06:52:29;;;;;;;;;;;;;;;24.95;66.34;97818.23;1672090;85;20240;-84
2021/07/28 06:54:56;;;;;;;;;;;;;;;25.00;66.22;97812.23;1675095;85;20240;-85
2021/07/28 06:57:22;;;;;;;;;;;;;;;25.07;66.16;97813.55;1672654;85;22051;-85
2021/07/28 06:59:52;;;;;;;;;;;;;;;25.13;66.09;97819.39;1674927;85;26022;-85
2021/07/28 07:02:18;;;;;;;;;;;;;;;25.15;66.00;97810.09;1674016;85;24674;-85
2021/07/28 07:04:44;;;;;;;;;;;;;;;25.22;65.91;97815.41;1674670;85;20355;-85
2021/07/28 07:07:10;;;;;;;;;;;;;;;25.28;65.83;97815.90;1671069;85;20722;-85
2021/07/28 07:09:36;;;;;;;;;;;;;;;25.36;65.73;97807.10;1673443;85;22240;-85
2021/07/28 07:12:03;;;;;;;;;;;;;;;25.46;65.63;97804.45;1674444;85;25948;-85
2021/07/28 07:14:29;;;;;;;;;;;;;;;25.51;65.54;97804.63;1669725;85;24389;-85
2021/07/28 07:16:56;;;;;;;;;;;;;;;25.57;65.40;97801.94;1674617;84;20288;-85
2021/07/28 07:19:24;;;;;;;;;;;;;;;25.63;65.19;97797.56;1673852;84;24883;-85
2021/07/28 07:21:50;;;;;;;;;;;;;;;25.67;64.98;97799.58;1667139;85;21720;-85
2021/07/28 07:24:16;;;;;;;;;;;;;;;25.73;64.85;97796.55;1673507;84;25979;-85
2021/07/28 07:26:42;;;;;;;;;;;;;;;25.80;64.72;97801.34;1673218;85;24487;-85
2021/07/28 07:29:08;;;;;;;;;;;;;;;25.89;64.59;97798.68;1672832;85;20869;-85
2021/07/28 07:31:40;;;;;;;;;;;;;;;25.97;64.50;97794.88;1670546;84;24746;-86
2021/07/28 07:34:06;;;;;;;;;;;;;;;26.01;64.33;97794.25;1674441;85;22209;-85
2021/07/28 07:36:32;;;;;;;;;;;;;;;26.06;64.12;97793.58;1675805;85;25901;-85
2021/07/28 07:38:59;;;;;;;;;;;;;;;26.14;63.95;97791.94;1674463;85;25523;-85
2021/07/28 07:41:25;;;;;;;;;;;;;;;26.19;63.76;97794.25;1674316;85;20331;-85
2021/07/28 07:43:51;;;;;;;;;;;;;;;26.24;63.60;97793.09;1673643;85;24944;-85
2021/07/28 07:46:17;;;;;;;;;;;;;;;26.32;63.48;97791.17;1674487;85;22214;-85
2021/07/28 07:48:44;;;;;;;;;;;;;;;26.41;63.42;97792.51;1673111;85;25933;-85
2021/07/28 07:51:10;;;;;;;;;;;;;;;26.49;63.38;97798.94;1674647;83;24581;-85
2021/07/28 07:53:36;;;;;;;;;;;;;;;26.54;63.26;97797.73;1677499;83;20595;-85
2021/07/28 07:56:08;;;;;;;;;;;;;;;26.58;63.14;97795.72;1674849;85;25464;-85
2021/07/28 07:58:34;;;;;;;;;;;;;;;26.65;62.99;97796.98;1680488;83;22100;-85
2021/07/28 08:01:07;;;;;;;;;;;;;;;26.72;62.86;97801.77;1678363;84;26758;-85
2021/07/28 08:03:33;;;;;;;;;;;;;;;26.79;62.71;97801.14;1678488;84;24456;-85
2021/07/28 08:06:02;;;;;;;;;;;;;;;26.88;62.55;97803.05;1657182;85;20156;-85
2021/07/28 08:08:31;;;;;;;;;;;;;;;26.95;62.39;97797.05;1680028;84;24825;-85
2021/07/28 08:10:59;;;;;;;;;;;;;;;27.00;62.26;97797.21;1679774;85;22103;-85
2021/07/28 08:13:25;;;;;;;;;;;;;;;27.08;62.13;97796.88;1679864;85;26014;-88
2021/07/28 08:15:57;;;;;;;;;;;;;;;27.19;62.08;97799.31;1679153;85;24578;-86
2021/07/28 08:18:23;;;;;;;;;;;;;;;27.24;61.94;97799.45;1676278;85;20245;-85
2021/07/28 08:20:50;;;;;;;;;;;;;;;27.31;61.67;97801.00;1680580;84;24811;-85
2021/07/28 08:23:15;;;;;;;;;;;;;;;27.40;61.51;97802.30;1680080;85;22146;-85
2021/07/28 08:25:42;;;;;;;;;;;;;;;27.46;61.26;97796.53;1680123;85;26036;-85
2021/07/28 08:28:12;;;;;;;;;;;;;;;27.54;61.20;97800.80;1680771;83;25502;-86
2021/07/28 08:30:39;;;;;;;;;;;;;;;27.61;61.08;97803.67;1678068;83;20312;-86
2021/07/28 08:33:05;;;;;;;;;;;;;;;27.67;60.99;97796.55;1683277;84;24746;-85
2021/07/28 08:35:34;;;;;;;;;;;;;;;27.72;60.83;97795.33;1679750;84;22542;-85
2021/07/28 08:38:01;;;;;;;;;;;;;;;27.84;60.77;97789.44;1676551;85;25961;-86
2021/07/28 08:40:28;;;;;;;;;;;;;;;27.98;60.68;97796.78;1676526;84;24134;-86
2021/07/28 08:42:55;;;;;;;;;;;;;;;28.09;60.58;97802.69;1678565;85;20443;-85
2021/07/28 08:45:21;;;;;;;;;;;;;;;28.14;60.46;97800.97;1683178;84;25192;-85
2021/07/28 08:47:47;;;;;;;;;;;;;;;28.19;60.27;97798.91;1677338;85;22035;-86
2021/07/28 08:50:14;;;;;;;;;;;;;;;28.26;60.09;97799.59;1679894;83;26078;-86
2021/07/28 08:52:41;;;;;;;;;;;;;;;28.38;59.99;97799.58;1679869;83;24622;-86
2021/07/28 08:55:08;;;;;;;;;;;;;;;28.47;59.86;97798.19;1682380;82;20513;-86
2021/07/28 08:57:35;;;;;;;;;;;;;;;28.53;59.63;97793.20;1678090;85;24768;-86
2021/07/28 09:00:01;;;;;;;;;;;;;;;28.62;59.46;97800.67;1684683;83;22030;-85
2021/07/28 09:02:28;;;;;;;;;;;;;;;28.68;59.28;97805.63;1677227;84;26077;-86
2021/07/28 09:04:54;;;;;;;;;;;;;;;28.73;58.99;97804.42;1679703;84;25456;-86
2021/07/28 09:07:23;;;;;;;;;;;;;;;28.77;58.76;97805.57;1680714;84;20316;-86
2021/07/28 09:09:51;;;;;;;;;;;;;;;28.88;58.58;97801.20;1680204;84;24892;-85
2021/07/28 09:12:17;;;;;;;;;;;;;;;28.94;58.40;97798.37;1676282;84;22071;-86
2021/07/28 09:15:01;;;;;;;;;;;;;;;28.93;58.15;97794.05;1679260;84;26161;-86
2021/07/28 09:17:28;;;;;;;;;;;;;;;29.02;58.05;97804.72;1680815;83;24611;-86
2021/07/28 09:19:56;;;;;;;;;;;;;;;29.11;57.83;97799.78;1678720;85;20172;-86
2021/07/28 09:22:26;;;;;;;;;;;;;;;29.15;57.67;97798.23;1679638;84;26009;-86
2021/07/28 09:25:31;;;;;;;;;;;;;;;29.20;57.47;97792.94;1678955;84;22087;-85
2021/07/28 09:27:51;;;;;;;;;;;;;;;29.24;57.16;97791.94;1679037;83;26618;-85
2021/07/28 09:30:25;;;;;;;;;;;;;;;29.38;57.01;97794.64;1679480;84;24403;-86
2021/07/28 09:33:10;;;;;;;;;;;;;;;29.45;56.79;97788.05;1678099;85;20401;-85
2021/07/28 09:35:56;;;;;;;;;;;;;;;29.56;56.60;97786.34;1678822;85;24806;-85
2021/07/28 09:38:27;;;;;;;;;;;;;;;29.68;56.39;97791.64;1681841;84;22037;-85
2021/07/28 09:40:55;;;;;;;;;;;;;;;29.70;56.00;97789.52;1677355;84;26088;-85
2021/07/28 09:43:25;;;;;;;;;;;;;;;29.68;55.66;97788.41;1677126;84;24564;-84
2021/07/28 09:45:49;;;;;;;;;;;;;;;29.78;55.60;97789.13;1678345;83;20266;-84
2021/07/28 09:48:17;;;;;;;;;;;;;;;29.85;55.34;97785.72;1666472;84;24732;-84
2021/07/28 09:50:43;;;;;;;;;;;;;;;29.90;55.08;97787.17;1678364;83;22142;-84
2021/07/28 09:53:09;;;;;;;;;;;;;;;29.97;54.90;97786.48;1626725;85;26905;-85
2021/07/28 09:55:37;;;;;;;;;;;;;;;29.98;54.70;97781.91;1682489;83;24525;-85
2021/07/28 09:58:03;;;;;;;;;;;;;;;30.04;54.68;97788.48;1684168;83;20224;-84
2021/07/28 10:00:29;;;;;;;;;;;;;;;30.09;54.59;97785.86;1639087;84;24697;-84
2021/07/28 10:03:00;;;;;;;;;;;;;;;30.13;54.45;97784.30;1658778;85;21825;-84
2021/07/28 10:05:31;;;;;;;;;;;;;;;30.12;54.25;97781.30;1682118;83;26796;-84
2021/07/28 10:07:59;;;;;;;;;;;;;;;30.19;54.13;97781.95;1643869;85;24439;-84
2021/07/28 10:10:27;;;;;;;;;;;;;;;30.22;54.02;97778.75;1678884;85;20288;-84
2021/07/28 10:12:53;;;;;;;;;;;;;;;30.26;53.94;97776.39;1681489;85;24805;-84
2021/07/28 10:15:22;;;;;;;;;;;;;;;30.30;53.84;97773.47;1633742;85;21817;-84
2021/07/28 10:17:51;;;;;;;;;;;;;;;30.30;53.70;97774.28;1691191;82;21409;-84
2021/07/28 10:20:17;;;;;;;;;;;;;;;30.27;53.52;97770.75;1630049;85;24059;-83
2021/07/28 10:22:43;;;;;;;;;;;;;;;30.31;53.42;97771.88;1676416;84;20318;-83
2021/07/28 10:25:14;;;;;;;;;;;;;;;30.35;53.34;97764.08;1666483;84;24796;-84
2021/07/28 10:27:41;;;;;;;;;;;;;;;30.38;53.16;97762.78;1639707;85;22084;-84
2021/07/28 10:30:09;;;;;;;;;;;;;;;30.42;53.20;97761.20;1684192;83;26569;-84
2021/07/28 10:32:36;;;;;;;;;;;;;;;30.40;52.98;97759.28;1637912;85;24438;-84
2021/07/28 10:35:25;;;;;;;;;;;;;;;30.35;52.89;97766.25;1683686;83;20323;-84
2021/07/28 10:37:50;;;;;;;;;;;;;;;30.28;52.65;97764.78;1650403;85;25503;-83
2021/07/28 10:40:31;;;;;;;;;;;;;;;30.19;52.56;97757.66;1627792;88;22083;-84
2021/07/28 10:43:00;;;;;;;;;;;;;;;30.24;52.66;97762.31;1682224;83;25966;-84
2021/07/28 10:45:27;;;;;;;;;;;;;;;30.25;52.63;97760.72;1683954;83;24500;-84
2021/07/28 10:47:53;;;;;;;;;;;;;;;30.29;52.54;97765.08;1641049;85;20514;-84
2021/07/28 10:50:24;;;;;;;;;;;;;;;30.32;52.35;97756.50;1660963;85;24840;-84
2021/07/28 10:52:57;;;;;;;;;;;;;;;30.39;52.35;97764.39;1678738;83;21735;-84
2021/07/28 10:55:30;;;;;;;;;;;;;;;30.41;52.24;97764.44;1664091;85;26193;-85
2021/07/28 10:58:11;;;;;;;;;;;;;;;30.39;52.02;97750.89;1662537;84;24662;-85
2021/07/28 11:00:39;;;;;;;;;;;;;;;30.44;52.05;97754.47;1660987;85;20224;-85
2021/07/28 11:03:11;;;;;;;;;;;;;;;30.50;51.96;97752.69;1658606;85;25708;-85
2021/07/28 11:05:39;;;;;;;;;;;;;;;30.47;51.81;97755.87;1663175;85;22795;-84
2021/07/28 11:08:15;;;;;;;;;;;;;;;30.49;51.88;97753.77;1660660;84;26730;-85
2021/07/28 11:10:46;;;;;;;;;;;;;;;30.51;51.90;97753.80;1657933;85;25308;-84
2021/07/28 11:13:13;;;;;;;;;;;;;;;30.55;51.80;97755.48;1663799;85;20218;-84
2021/07/28 11:15:41;;;;;;;;;;;;;;;30.55;51.55;97752.22;1659914;84;24800;-84
2021/07/28 11:18:07;;;;;;;;;;;;;;;30.52;51.39;97742.45;1660180;85;21971;-84
2021/07/28 11:20:39;;;;;;;;;;;;;;;30.56;51.16;97748.98;1672220;84;25982;-84
2021/07/28 11:25:51;;;;;;;;;;;;;;;30.62;50.92;97744.75;1664033;85;20158;-84
2021/07/28 11:28:19;;;;;;;;;;;;;;;30.71;51.00;97747.28;1662834;85;24769;-84
2021/07/28 11:30:47;;;;;;;;;;;;;;;30.76;51.01;97745.19;1661466;85;22049;-84
2021/07/28 11:33:14;;;;;;;;;;;;;;;30.81;51.03;97743.90;1653952;84;26091;-84
2021/07/28 11:35:51;;;;;;;;;;;;;;;30.86;50.92;97739.08;1666196;85;24513;-85
2021/07/28 11:38:23;;;;;;;;;;;;;;;30.88;50.74;97741.79;1644046;85;20470;-84
2021/07/28 11:40:48;;;;;;;;;;;;;;;30.87;50.48;97736.13;1659794;85;24772;-85
2021/07/28 11:43:29;;;;;;;;;;;;;;;30.96;50.47;97731.08;1666187;85;22752;-85
2021/07/28 11:45:56;;;;;;;;;;;;;;;31.01;50.40;97733.30;1657745;85;26192;-85
2021/07/28 11:48:29;;;;;;;;;;;;;;;31.03;50.30;97724.44;1664497;84;25359;-85
2021/07/28 11:51:04;;;;;;;;;;;;;;;31.07;50.16;97721.50;1663853;85;20184;-85
2021/07/28 11:53:31;;;;;;;;;;;;;;;31.11;50.07;97722.61;1656566;84;24596;-85
2021/07/28 11:56:11;;;;;;;;;;;;;;;31.14;50.00;97726.17;1659932;84;22651;-84
2021/07/28 11:58:50;;;;;;;;;;;;;;;31.15;49.79;97726.42;1650629;84;26000;-85
2021/07/28 12:01:19;;;;;;;;;;;;;;;31.21;49.66;97721.06;1659757;86;24570;-85
2021/07/28 12:03:49;;;;;;;;;;;;;;;31.30;49.75;97714.14;1650556;85;20228;-86
2021/07/28 12:06:16;;;;;;;;;;;;;;;31.34;49.79;97713.89;1653285;84;24825;-86
2021/07/28 12:08:42;;;;;;;;;;;;;;;31.36;49.75;97713.93;1656580;84;21982;-86
2021/07/28 12:11:10;;;;;;;;;;;;;;;31.43;49.91;97711.80;1657641;84;26094;-86
2021/07/28 12:13:45;;;;;;;;;;;;;;;31.46;49.80;97708.60;1660362;85;23701;-86
2021/07/28 12:16:12;;;;;;;;;;;;;;;31.45;49.67;97699.37;1649957;85;20596;-87
2021/07/28 12:18:39;;;;;;;;;;;;;;;31.53;49.50;97702.98;1652466;85;24815;-86
2021/07/28 12:21:06;;;;;;;;;;;;;;;31.54;49.32;97703.23;1656556;84;22049;-86
2021/07/28 12:23:32;;;;;;;;;;;;;;;31.54;49.09;97699.98;1648859;84;26785;-86
2021/07/28 12:25:58;;;;;;;;;;;;;;;31.55;49.00;97696.75;1649268;86;24516;-86
2021/07/28 12:28:30;;;;;;;;;;;;;;;31.52;48.75;97698.63;1652238;85;20170;-86
2021/07/28 12:30:58;;;;;;;;;;;;;;;31.48;48.59;97705.08;1659485;85;25118;-86
2021/07/28 12:33:24;;;;;;;;;;;;;;;31.52;48.44;97693.22;1658136;85;22033;-86
2021/07/28 12:35:56;;;;;;;;;;;;;;;31.51;48.42;97697.00;1649772;85;25984;-85
2021/07/28 12:38:23;;;;;;;;;;;;;;;31.55;48.24;97696.22;1657328;86;24566;-85
2021/07/28 12:40:54;;;;;;;;;;;;;;;31.63;48.13;97690.91;1654946;85;21014;-85
2021/07/28 12:43:21;;;;;;;;;;;;;;;31.70;48.07;97700.95;1650671;86;25646;-85
2021/07/28 12:45:54;;;;;;;;;;;;;;;31.70;47.95;97692.83;1657771;86;22169;-85
2021/07/28 12:48:21;;;;;;;;;;;;;;;31.73;47.82;97698.27;1662230;85;26184;-86
2021/07/28 12:50:49;;;;;;;;;;;;;;;31.71;47.64;97695.00;1652249;85;24683;-85
2021/07/28 12:53:16;;;;;;;;;;;;;;;31.67;47.42;97689.84;1663680;83;20313;-85
2021/07/28 12:55:42;;;;;;;;;;;;;;;31.65;47.12;97693.33;1676722;83;24824;-85